Time;durP1;ratioP1;P1;durP2;ratioP2;P2;SDS_P1;SDS_P2;PMS_P1;PMS_P2;Temp;Humidity;BMP_temperature;BMP_pressure;BME280_temperature;BME280_humidity;BME280_pressure;Samples;Min_cycle;Max_cycle;Signal;HPM_P1;HPM_P2
2023/01/02 11:49:15;;;;;;;12.10;4.03;;;;;;;;;;5083681;27;20420;-73
2023/01/02 11:51:41;;;;;;;12.27;4.47;;;;;;;;;;5084594;28;20079;-73
2023/01/02 11:54:21;;;;;;;14.32;4.55;;;;;;;;;;5070817;28;20033;-85
2023/01/02 11:58:25;;;;;;;7.25;3.88;;;;;;;;;;5169491;27;20852;-64
2023/01/02 12:00:54;;;;;;;10.55;3.95;;;;;;;;;;5169720;27;20022;-64
2023/01/02 12:03:23;;;;;;;7.88;3.72;;;;;;;;;;5171552;27;20026;-64
2023/01/02 12:06:14;;;;;;;8.95;3.92;;;;;;;;;;5150956;27;20087;-65
2023/01/02 12:08:40;;;;;;;8.20;3.00;;;;;;;;;;5137908;27;20014;-71
2023/01/02 12:11:32;;;;;;;11.38;4.07;;;;;;;;;;5170726;27;20050;-71
2023/01/02 12:13:58;;;;;;;14.60;4.20;;;;;;;;;;5153202;27;20157;-68
2023/01/02 12:16:33;;;;;;;12.00;3.78;;;;;;;;;;5170834;27;20023;-71
2023/01/02 12:19:17;;;;;;;7.60;3.50;;;;;;;;;;5171225;27;20379;-68
2023/01/02 12:21:55;;;;;;;11.95;4.07;;;;;;;;;;5170311;27;20015;-68
2023/01/02 12:24:27;;;;;;;8.20;3.08;;;;;;;;;;5171120;27;20109;-70
2023/01/02 12:27:12;;;;;;;9.90;3.20;;;;;;;;;;5171235;27;20486;-70
2023/01/02 12:29:56;;;;;;;9.32;3.53;;;;;;;;;;5171418;27;20090;-69
2023/01/02 12:32:45;;;;;;;8.63;3.17;;;;;;;;;;5170315;27;20034;-69
2023/01/02 12:35:35;;;;;;;11.80;3.55;;;;;;;;;;5154420;27;20027;-69
2023/01/02 12:38:04;;;;;;;8.02;3.22;;;;;;;;;;5123694;27;20376;-69
2023/01/02 12:40:49;;;;;;;6.68;3.30;;;;;;;;;;5151495;27;20041;-68
2023/01/02 12:43:18;;;;;;;7.07;3.58;;;;;;;;;;5170652;27;20383;-70
2023/01/02 12:45:51;;;;;;;7.40;3.25;;;;;;;;;;5170752;27;20025;-68
2023/01/02 12:48:20;;;;;;;5.25;2.95;;;;;;;;;;5170704;27;20475;-68
2023/01/02 12:50:53;;;;;;;6.82;2.83;;;;;;;;;;5169870;27;20062;-68
2023/01/02 12:53:38;;;;;;;6.93;2.80;;;;;;;;;;5151968;27;20036;-68
2023/01/02 12:56:07;;;;;;;9.55;2.78;;;;;;;;;;5170611;27;20506;-70
2023/01/02 12:58:33;;;;;;;4.28;2.78;;;;;;;;;;5172018;27;20079;-68
2023/01/02 13:01:08;;;;;;;3.60;2.60;;;;;;;;;;5169788;27;20027;-68
2023/01/02 13:03:39;;;;;;;6.43;3.05;;;;;;;;;;5170281;27;20027;-70
2023/01/02 13:06:17;;;;;;;6.50;2.72;;;;;;;;;;5170346;27;20078;-68
2023/01/02 13:08:46;;;;;;;9.63;2.78;;;;;;;;;;5161513;27;20451;-69
2023/01/02 13:11:14;;;;;;;5.22;2.75;;;;;;;;;;5137027;27;20110;-68
2023/01/02 13:13:40;;;;;;;5.68;2.85;;;;;;;;;;5156535;27;20154;-70
2023/01/02 13:16:12;;;;;;;5.55;3.17;;;;;;;;;;5156210;27;20047;-70
2023/01/02 13:19:00;;;;;;;4.72;2.97;;;;;;;;;;5156066;27;20105;-70
2023/01/02 13:21:33;;;;;;;4.95;2.72;;;;;;;;;;5089627;27;20027;-70
2023/01/02 13:24:00;;;;;;;5.72;2.50;;;;;;;;;;5158698;27;20468;-69
2023/01/02 13:26:28;;;;;;;5.65;3.05;;;;;;;;;;5158645;27;20023;-70
2023/01/02 13:28:54;;;;;;;5.30;2.88;;;;;;;;;;5155979;27;20106;-70
2023/01/02 13:31:20;;;;;;;3.75;2.25;;;;;;;;;;5155346;27;20097;-68
2023/01/02 13:33:47;;;;;;;4.00;2.38;;;;;;;;;;5156005;27;20031;-68
2023/01/02 13:36:15;;;;;;;5.88;2.78;;;;;;;;;;5155921;27;20026;-68
2023/01/02 13:38:43;;;;;;;4.18;2.65;;;;;;;;;;5159027;27;20019;-68
2023/01/02 13:41:13;;;;;;;4.43;2.67;;;;;;;;;;5155477;27;20022;-70
2023/01/02 13:43:39;;;;;;;3.78;2.20;;;;;;;;;;5155687;27;20098;-68
2023/01/02 13:46:05;;;;;;;5.70;2.47;;;;;;;;;;5137208;27;20031;-68
2023/01/02 13:48:37;;;;;;;4.90;2.15;;;;;;;;;;5155685;27;20018;-70
2023/01/02 13:51:05;;;;;;;3.20;2.53;;;;;;;;;;5154864;27;20022;-68
2023/01/02 13:53:41;;;;;;;4.03;2.35;;;;;;;;;;5155576;27;20019;-70
2023/01/02 13:56:14;;;;;;;4.10;2.50;;;;;;;;;;5155308;27;20463;-70
2023/01/02 13:58:40;;;;;;;9.40;2.67;;;;;;;;;;5155669;27;20019;-68
2023/01/02 14:01:22;;;;;;;2.83;2.50;;;;;;;;;;5154579;27;20050;-68
2023/01/02 14:04:06;;;;;;;5.57;2.05;;;;;;;;;;5155400;27;20479;-69
2023/01/02 14:06:32;;;;;;;3.92;2.55;;;;;;;;;;5146694;27;20097;-73
2023/01/02 14:09:04;;;;;;;5.32;2.80;;;;;;;;;;5140063;27;20436;-68
2023/01/02 14:11:39;;;;;;;4.72;2.35;;;;;;;;;;5151455;27;20098;-67
2023/01/02 14:14:14;;;;;;;2.78;2.10;;;;;;;;;;5151235;27;20119;-67
2023/01/02 14:16:49;;;;;;;6.75;2.33;;;;;;;;;;5134468;27;20029;-70
2023/01/02 14:19:20;;;;;;;1.90;1.65;;;;;;;;;;5115411;27;20031;-70
2023/01/02 14:21:46;;;;;;;4.15;2.70;;;;;;;;;;5132988;27;20015;-68
2023/01/02 14:24:21;;;;;;;4.57;1.85;;;;;;;;;;5135111;27;20019;-72
2023/01/02 14:26:51;;;;;;;13.43;3.65;;;;;;;;;;5155983;27;20091;-70
2023/01/02 14:29:18;;;;;;;7.07;2.83;;;;;;;;;;5154801;27;20023;-70
2023/01/02 14:31:44;;;;;;;6.80;2.40;;;;;;;;;;5134891;27;20027;-70
2023/01/02 14:34:12;;;;;;;4.70;2.67;;;;;;;;;;5154619;27;20049;-71
2023/01/02 14:36:43;;;;;;;5.20;2.50;;;;;;;;;;5154393;27;20102;-71
2023/01/02 14:39:32;;;;;;;3.35;2.13;;;;;;;;;;5154411;27;20481;-71
2023/01/02 14:45:04;;;;;;;4.20;2.30;;;;;;;;;;5133956;27;20533;-71
2023/01/02 14:47:38;;;;;;;10.90;2.75;;;;;;;;;;5133470;27;20027;-71
2023/01/02 14:50:06;;;;;;;8.45;1.88;;;;;;;;;;5133238;27;20426;-70
2023/01/02 14:52:34;;;;;;;5.03;2.35;;;;;;;;;;5132293;27;20471;-70
2023/01/02 14:55:19;;;;;;;4.18;2.30;;;;;;;;;;5133389;27;20071;-75
2023/01/02 14:57:47;;;;;;;6.18;2.50;;;;;;;;;;5114751;27;20031;-72
2023/01/02 15:00:21;;;;;;;5.70;2.17;;;;;;;;;;5114038;27;20026;-72
2023/01/02 15:02:47;;;;;;;4.18;2.35;;;;;;;;;;5113990;27;20106;-73
2023/01/02 15:05:26;;;;;;;6.07;2.15;;;;;;;;;;5132655;27;20435;-72
2023/01/02 15:07:55;;;;;;;6.63;2.50;;;;;;;;;;5114180;27;20027;-72
2023/01/02 15:10:22;;;;;;;5.03;2.40;;;;;;;;;;5131861;27;20050;-74
2023/01/02 15:13:09;;;;;;;8.02;2.13;;;;;;;;;;5137540;27;20038;-72
2023/01/02 15:15:35;;;;;;;;;;;;;;;;;;5134535;27;20023;-74
2023/01/02 15:18:25;;;;;;;5.97;2.53;;;;;;;;;;5132277;27;19953;-72
2023/01/02 15:20:55;;;;;;;8.20;2.33;;;;;;;;;;5123400;27;20023;-71
2023/01/02 15:23:25;;;;;;;3.72;1.92;;;;;;;;;;5132258;27;20067;-72
2023/01/02 15:25:52;;;;;;;4.25;2.40;;;;;;;;;;5132756;27;20023;-72
2023/01/02 15:28:26;;;;;;;6.57;2.92;;;;;;;;;;5133265;27;20027;-73
2023/01/02 15:30:58;;;;;;;4.80;2.40;;;;;;;;;;5131366;27;20023;-72
2023/01/02 15:33:26;;;;;;;2.85;1.70;;;;;;;;;;5132391;27;20507;-73
2023/01/02 15:35:57;;;;;;;5.45;1.90;;;;;;;;;;5132617;27;20027;-72
2023/01/02 15:38:23;;;;;;;3.53;2.13;;;;;;;;;;5132624;27;20060;-72
2023/01/02 15:40:49;;;;;;;5.72;2.00;;;;;;;;;;5131791;27;20026;-73
2023/01/02 15:46:01;;;;;;;4.13;2.10;;;;;;;;;;5135213;27;20039;-73
2023/01/02 15:48:27;;;;;;;3.15;2.05;;;;;;;;;;5142313;27;20019;-72
2023/01/02 15:50:54;;;;;;;4.55;1.92;;;;;;;;;;5115408;28;20031;-73
2023/01/02 15:53:33;;;;;;;2.75;1.92;;;;;;;;;;5132445;27;20384;-72
2023/01/02 15:55:59;;;;;;;4.28;2.40;;;;;;;;;;5132277;28;20049;-69
2023/01/02 15:58:35;;;;;;;2.50;2.10;;;;;;;;;;5117299;27;20101;-74
2023/01/02 16:01:10;;;;;;;4.03;1.92;;;;;;;;;;5144467;27;20023;-74
2023/01/02 16:03:37;;;;;;;5.35;2.17;;;;;;;;;;5117075;28;20027;-73
2023/01/02 16:06:06;;;;;;;9.43;2.88;;;;;;;;;;5134069;27;20019;-73
2023/01/02 16:08:32;;;;;;;12.10;3.08;;;;;;;;;;5153232;27;20015;-72
2023/01/02 16:11:01;;;;;;;10.38;2.47;;;;;;;;;;5152105;27;20428;-69
2023/01/02 16:16:17;;;;;;;8.60;2.65;;;;;;;;;;5136833;27;20041;-72
2023/01/02 16:18:45;;;;;;;11.05;2.90;;;;;;;;;;5113779;28;20025;-71
2023/01/02 16:21:13;;;;;;;11.57;2.90;;;;;;;;;;5112516;28;20042;-72
2023/01/02 16:23:40;;;;;;;14.93;2.85;;;;;;;;;;5132044;28;20039;-72
2023/01/02 16:26:10;;;;;;;10.43;3.13;;;;;;;;;;5131750;28;20037;-72
2023/01/02 16:28:39;;;;;;;13.48;3.17;;;;;;;;;;5131950;27;20159;-72
2023/01/02 16:31:13;;;;;;;6.93;3.15;;;;;;;;;;5134383;27;20019;-73
2023/01/02 16:33:40;;;;;;;4.65;2.30;;;;;;;;;;5133377;27;20091;-73
2023/01/02 16:36:09;;;;;;;8.77;3.05;;;;;;;;;;5132053;28;20020;-72
2023/01/02 16:39:07;;;;;;;6.15;2.30;;;;;;;;;;5131789;27;20015;-70
2023/01/02 16:42:32;;;;;;;14.30;2.88;;;;;;;;;;5067232;28;20036;-69
2023/01/02 16:44:32;;;;;;;5.22;3.22;;;;;;;;;;5071013;28;20028;-69
2023/01/02 16:46:58;;;;;;;19.40;3.38;;;;;;;;;;5071994;28;20032;-71
2023/01/02 16:49:24;;;;;;;10.00;2.17;;;;;;;;;;5072158;28;20393;-71
2023/01/02 16:51:50;;;;;;;3.67;2.17;;;;;;;;;;5070881;28;20040;-71
2023/01/02 16:54:18;;;;;;;4.07;2.50;;;;;;;;;;5071965;28;20063;-72
2023/01/02 16:56:44;;;;;;;4.35;2.20;;;;;;;;;;5054938;28;20072;-70
2023/01/02 16:59:10;;;;;;;3.70;2.40;;;;;;;;;;5054934;28;20063;-71
2023/01/02 17:01:36;;;;;;;5.95;3.00;;;;;;;;;;5070523;28;20490;-69
2023/01/02 17:04:02;;;;;;;6.75;2.88;;;;;;;;;;5071711;28;20032;-69
2023/01/02 17:06:28;;;;;;;19.65;2.95;;;;;;;;;;5079201;28;20028;-70
2023/01/02 17:08:54;;;;;;;7.28;3.15;;;;;;;;;;5092334;28;20036;-72
2023/01/02 17:11:21;;;;;;;7.75;2.30;;;;;;;;;;5090852;28;20051;-72
2023/01/02 17:13:48;;;;;;;6.38;3.40;;;;;;;;;;5092323;28;20390;-76
2023/01/02 17:16:14;;;;;;;2.97;2.60;;;;;;;;;;5102227;27;20035;-74
2023/01/02 17:18:40;;;;;;;3.83;2.90;;;;;;;;;;5118109;27;20066;-73
2023/01/02 17:21:06;;;;;;;9.00;2.55;;;;;;;;;;5135390;27;20535;-73
2023/01/02 17:23:32;;;;;;;6.28;2.42;;;;;;;;;;5135080;27;20126;-73
2023/01/02 17:25:58;;;;;;;3.92;2.47;;;;;;;;;;5135465;27;20019;-74
2023/01/02 17:28:26;;;;;;;4.28;2.55;;;;;;;;;;5135111;27;20030;-76
2023/01/02 17:30:52;;;;;;;3.28;2.78;;;;;;;;;;5134179;27;20041;-74
2023/01/02 17:33:18;;;;;;;4.50;2.88;;;;;;;;;;5134907;27;20019;-74
2023/01/02 17:35:45;;;;;;;10.60;3.58;;;;;;;;;;5135087;27;20030;-74
2023/01/02 17:38:11;;;;;;;7.53;3.15;;;;;;;;;;5134829;27;20476;-75
2023/01/02 17:40:37;;;;;;;5.85;3.22;;;;;;;;;;5134119;27;20030;-73
2023/01/02 17:43:04;;;;;;;4.43;2.85;;;;;;;;;;5134758;27;20015;-73
2023/01/02 17:45:30;;;;;;;12.85;3.30;;;;;;;;;;5135014;27;20019;-74
2023/01/02 17:47:56;;;;;;;5.72;2.80;;;;;;;;;;5134840;27;20050;-74
2023/01/02 17:50:22;;;;;;;3.55;2.83;;;;;;;;;;5115626;27;20026;-73
2023/01/02 17:52:48;;;;;;;6.60;3.17;;;;;;;;;;5134767;27;20119;-71
2023/01/02 17:55:14;;;;;;;7.07;2.85;;;;;;;;;;5136348;27;20039;-71
2023/01/02 17:57:40;;;;;;;9.13;2.88;;;;;;;;;;5117989;27;20027;-69
2023/01/02 18:00:09;;;;;;;4.72;3.28;;;;;;;;;;5135410;27;20022;-70
2023/01/02 18:02:35;;;;;;;6.35;3.80;;;;;;;;;;5135583;27;20071;-70
2023/01/02 18:05:01;;;;;;;4.07;2.72;;;;;;;;;;5136952;27;20071;-69
2023/01/02 18:07:27;;;;;;;4.35;2.88;;;;;;;;;;5157030;27;20033;-71
2023/01/02 18:09:53;;;;;;;9.00;3.05;;;;;;;;;;5155445;27;20028;-70
2023/01/02 18:12:19;;;;;;;8.18;3.67;;;;;;;;;;5153846;27;20361;-71
2023/01/02 18:14:46;;;;;;;5.18;2.80;;;;;;;;;;5136261;27;20034;-71
2023/01/02 18:17:13;;;;;;;5.72;3.15;;;;;;;;;;5154909;27;20075;-70
2023/01/02 18:19:40;;;;;;;6.32;3.30;;;;;;;;;;5154696;27;20091;-70
2023/01/02 18:22:10;;;;;;;5.40;3.85;;;;;;;;;;5153379;27;20022;-68
2023/01/02 18:24:36;;;;;;;8.40;3.35;;;;;;;;;;5154879;27;20023;-68
2023/01/02 18:27:23;;;;;;;7.50;4.15;;;;;;;;;;5154573;27;20075;-70
2023/01/02 18:30:12;;;;;;;6.60;3.23;;;;;;;;;;5136192;27;20018;-70
2023/01/02 18:32:39;;;;;;;8.18;3.65;;;;;;;;;;5153922;27;20456;-69
2023/01/02 18:35:11;;;;;;;6.53;3.40;;;;;;;;;;5103239;22;20500;-70
2023/01/02 18:37:39;;;;;;;6.10;4.07;;;;;;;;;;5072894;28;20115;-70
2023/01/02 18:40:05;;;;;;;;;;;;;;;;;;5073152;28;20471;-70
2023/01/02 18:42:33;;;;;;;3.55;3.17;;;;;;;;;;5072235;28;19909;-70
2023/01/02 18:45:00;;;;;;;3.97;3.00;;;;;;;;;;5072683;28;20141;-70
2023/01/02 18:47:30;;;;;;;3.40;3.10;;;;;;;;;;5072751;28;20100;-69
2023/01/02 18:50:12;;;;;;;7.20;3.60;;;;;;;;;;5054740;28;20392;-71
2023/01/02 18:52:42;;;;;;;7.38;4.07;;;;;;;;;;5072337;28;20376;-69
2023/01/02 18:55:08;;;;;;;4.03;3.20;;;;;;;;;;5072533;28;20036;-70
2023/01/02 18:57:34;;;;;;;4.93;3.53;;;;;;;;;;5072958;28;20032;-70
2023/01/02 19:00:21;;;;;;;3.80;3.50;;;;;;;;;;5054399;28;20025;-69
2023/01/02 19:02:52;;;;;;;4.15;3.60;;;;;;;;;;5069960;28;20112;-70
2023/01/02 19:05:18;;;;;;;5.80;3.88;;;;;;;;;;5071550;28;20046;-71
2023/01/02 19:07:44;;;;;;;4.25;3.80;;;;;;;;;;5054184;28;20029;-70
2023/01/02 19:10:13;;;;;;;6.50;3.40;;;;;;;;;;5072045;28;20117;-69
2023/01/02 19:13:02;;;;;;;4.20;3.80;;;;;;;;;;5052849;28;20028;-70
2023/01/02 19:15:42;;;;;;;4.00;3.47;;;;;;;;;;5068543;28;20024;-69
2023/01/02 19:18:14;;;;;;;5.53;3.80;;;;;;;;;;5071752;28;20033;-70
2023/01/02 19:20:41;;;;;;;6.78;4.25;;;;;;;;;;5071104;28;20028;-70
2023/01/02 19:23:28;;;;;;;4.95;3.85;;;;;;;;;;5054282;28;20031;-72
2023/01/02 19:25:55;;;;;;;8.18;4.47;;;;;;;;;;5054036;28;20024;-70
2023/01/02 19:28:27;;;;;;;4.80;4.30;;;;;;;;;;5071889;28;20085;-70
2023/01/02 19:30:53;;;;;;;4.93;4.13;;;;;;;;;;5071791;28;20480;-70
2023/01/02 19:33:38;;;;;;;10.85;4.80;;;;;;;;;;5071539;28;20393;-70
2023/01/02 19:36:04;;;;;;;6.78;4.38;;;;;;;;;;5071501;28;20400;-70
2023/01/02 19:38:32;;;;;;;7.20;4.43;;;;;;;;;;5071843;28;20518;-69
2023/01/02 19:40:59;;;;;;;8.48;4.95;;;;;;;;;;5053777;28;20258;-69
2023/01/02 19:43:26;;;;;;;6.97;4.80;;;;;;;;;;5072254;28;20012;-70
2023/01/02 19:45:52;;;;;;;7.45;4.60;;;;;;;;;;5072098;28;20021;-69
2023/01/02 19:48:18;;;;;;;6.35;4.55;;;;;;;;;;5072102;28;20489;-69
2023/01/02 19:50:44;;;;;;;9.68;5.57;;;;;;;;;;5071684;28;20103;-69
2023/01/02 19:53:10;;;;;;;8.13;4.22;;;;;;;;;;5071494;28;20028;-69
2023/01/02 19:55:36;;;;;;;8.35;5.38;;;;;;;;;;5071970;28;20078;-69
2023/01/02 19:58:03;;;;;;;9.55;5.50;;;;;;;;;;5071877;28;20461;-70
2023/01/02 20:00:29;;;;;;;8.00;5.10;;;;;;;;;;5071805;28;20103;-70
2023/01/02 20:02:55;;;;;;;9.25;6.15;;;;;;;;;;5071978;28;20035;-69
2023/01/02 20:05:21;;;;;;;9.55;5.95;;;;;;;;;;5071603;28;20024;-69
2023/01/02 20:07:48;;;;;;;8.60;6.00;;;;;;;;;;5071631;28;20029;-69
2023/01/02 20:10:14;;;;;;;11.75;6.07;;;;;;;;;;5053539;28;20111;-70
2023/01/02 20:12:40;;;;;;;9.30;6.38;;;;;;;;;;5071126;28;20070;-69
2023/01/02 20:15:10;;;;;;;7.45;5.45;;;;;;;;;;5071504;28;20048;-69
2023/01/02 20:17:37;;;;;;;9.00;6.50;;;;;;;;;;5071712;28;20096;-69
2023/01/02 20:20:03;;;;;;;12.63;5.97;;;;;;;;;;5075936;28;20025;-69
2023/01/02 20:22:30;;;;;;;11.52;6.35;;;;;;;;;;5075247;28;20408;-68
2023/01/02 20:24:56;;;;;;;10.02;6.30;;;;;;;;;;5075992;28;20033;-70
2023/01/02 20:27:23;;;;;;;8.60;5.80;;;;;;;;;;5060099;28;20036;-70
2023/01/02 20:29:49;;;;;;;9.33;5.97;;;;;;;;;;5080442;28;20036;-69
2023/01/02 20:32:15;;;;;;;9.20;6.47;;;;;;;;;;5060442;28;20345;-68
2023/01/02 20:34:41;;;;;;;7.57;5.80;;;;;;;;;;5075301;28;20044;-69
2023/01/02 20:37:07;;;;;;;9.18;6.63;;;;;;;;;;5075699;28;20055;-70
2023/01/02 20:39:34;;;;;;;8.27;6.30;;;;;;;;;;5075807;28;20029;-69
2023/01/02 20:41:59;;;;;;;8.30;6.20;;;;;;;;;;5075410;28;20024;-68
2023/01/02 20:44:26;;;;;;;8.63;6.65;;;;;;;;;;5075585;28;20529;-69
2023/01/02 20:46:53;;;;;;;8.52;6.32;;;;;;;;;;5057583;28;20028;-69
2023/01/02 20:49:19;;;;;;;11.48;7.20;;;;;;;;;;5075565;28;20028;-69
2023/01/02 20:51:45;;;;;;;9.77;6.57;;;;;;;;;;5075707;28;20035;-69
2023/01/02 20:54:11;;;;;;;44.58;17.77;;;;;;;;;;5076923;28;20664;-47
2023/01/02 20:56:37;;;;;;;73.80;39.20;;;;;;;;;;5075988;28;20028;-46
2023/01/02 20:59:03;;;;;;;75.20;38.95;;;;;;;;;;5075876;28;20469;-47
2023/01/02 21:01:29;;;;;;;89.68;45.47;;;;;;;;;;5075537;28;20060;-46
2023/01/02 21:03:55;;;;;;;87.95;43.88;;;;;;;;;;5076047;28;20415;-43
2023/01/02 21:06:21;;;;;;;104.55;45.33;;;;;;;;;;5075820;28;20020;-46
2023/01/02 21:08:47;;;;;;;80.05;46.58;;;;;;;;;;5076331;28;20020;-47
2023/01/02 21:11:13;;;;;;;83.03;45.53;;;;;;;;;;5075961;28;20094;-47
2023/01/02 21:13:39;;;;;;;81.88;44.08;;;;;;;;;;5077525;28;20020;-46
2023/01/02 21:16:05;;;;;;;80.10;43.58;;;;;;;;;;5081812;28;20028;-48
2023/01/02 21:18:32;;;;;;;79.18;45.80;;;;;;;;;;5082480;28;20059;-44
